Tiempo atmosférico en la estación meteorológica de Maspalomas, Las Palmas (25 m.)



Fecha
DESCASC
Temp. máxima en grados centígrados (hora)
DESCASC
Temp. mínima en grados centígrados (hora)
DESCASC
Temp. media en grados centígrados
DESCASC
Racha de viento máxima en m/sg (hora)
DESCASC
Velocidad máxima media en intervalos de 10 minutos(hora)
DESCASC
Precipitaciones diarias en mm
DESCASC
Precipitaciones de 00:00 a 06:00 en mm
DESCASC
Precipitaciones de 06:00 a 12:00 en mm
DESCASC
Precipitaciones de 12:00 a 18:00 en mm
DESCASC
Precipitaciones de 18:00 a 24:00 en mm
DESCASC
22-08-2019 -- (--) -- (--) -- -- (--) -- (--) -- 0 0 -- --
21-08-2019 26.7 (16:10) 21 (06:40) 23.9 7.78 (14:30) 5.83 (14:20) 0 0 0 0 0
20-08-2019 27.4 (17:40) 19.5 (07:50) 23.4 6.94 (14:40) 4.72 (16:10) 0 0 0 0 0
19-08-2019 30.1 (11:50) 20.6 (07:20) 25.4 9.72 (11:20) 6.11 (14:50) 0 0 0 0 0
18-08-2019 26.9 (09:20) 21.2 (00:00) 24.1 7.5 (15:20) 5.28 (14:40) 0 0 0 0 0
17-08-2019 -- (--) -- (--) -- -- (--) -- (--) -- -- -- 0 0
16-08-2019 -- (--) -- (--) -- -- (--) -- (--) -- 0 -- 0 --
15-08-2019 26.8 (15:20) 19.2 (00:00) 23 5.83 (18:50) 3.89 (14:30) 0 0 0 0 0
14-08-2019 26 (17:00) 19.5 (00:00) 22.8 6.39 (18:40) 4.72 (13:40) 0 0 0 0 0
13-08-2019 26.7 (15:50) 20.1 (00:00) 23.4 7.22 (14:20) 4.72 (16:40) 0 0 0 0 0
12-08-2019 27.2 (15:30) 20.3 (00:00) 23.8 7.22 (18:30) 5.83 (17:40) 0 0 0 0 0
11-08-2019 -- (--) -- (--) -- -- (--) -- (--) -- 0 -- 0 0
10-08-2019 27.4 (16:20) 21.6 (00:00) 24.5 5.83 (15:00) 3.89 (14:00) 0 0 0 0 0
09-08-2019 27.2 (13:20) 21.4 (00:00) 24.3 20.56 (11:50) 8.89 (12:40) 0 0 0 0 0
08-08-2019 26.1 (13:30) 20.1 (00:00) 23.1 19.72 (14:10) 8.89 (14:40) 0 0 0 0 0
07-08-2019 26.1 (16:30) 19.3 (00:00) 22.7 6.67 (19:10) 4.17 (15:50) 0 0 0 0 0
06-08-2019 26.5 (15:10) 19.2 (00:00) 22.9 8.33 (17:10) 4.72 (17:10) 0 0 0 0 0
05-08-2019 25.4 (12:40) 19.2 (00:00) 22.3 13.06 (12:10) 6.39 (15:10) 0 0 0 0 0
04-08-2019 25.7 (14:30) 19.3 (00:00) 22.5 6.39 (16:10) 5.28 (16:10) 0 0 0 0 0
03-08-2019 26.9 (16:10) 19.2 (00:00) 23.1 17.22 (12:20) 6.11 (14:30) 0 0 0 0 0
02-08-2019 25.8 (12:30) 19.7 (00:00) 22.8 8.89 (15:00) 5.83 (16:50) 0 0 0 0 0
01-08-2019 26.3 (18:10) 19.6 (00:00) 22.9 8.61 (14:10) 6.39 (16:40) 0 0 0 0 0
31-07-2019 26 (14:10) 19.8 (00:00) 22.9 7.5 (18:00) 5.28 (13:00) 0 0 0 0 0
30-07-2019 27.4 (14:40) 20 (00:00) 23.7 10 (14:30) 6.39 (17:50) 0 0 0 0 0
29-07-2019 26.9 (14:50) 20.7 (00:00) 23.8 9.72 (16:00) 5.83 (18:10) 0 0 0 0 0
28-07-2019 26 (13:50) 20.1 (00:00) 23.1 7.5 (14:40) 5 (15:50) 0 0 0 0 0
27-07-2019 26.8 (15:30) 21.9 (00:00) 24.3 8.33 (16:20) 4.72 (16:20) 0 0 0 0 0
26-07-2019 27.2 (13:40) 19.8 (00:00) 23.5 7.22 (16:40) 5.56 (16:40) 0 0 0 0 0

Gráficas

Temp. máximas Temp. mínimas Temp. medias Precipitaciones Rachas de viento máximas Velocidades máximas media en intervalos de 10 minutos

Datos horarios

Fecha y hora oficial Temperatura (ºC) Velocidad del viento (km/h) Dirección del viento Racha (km/h) Dirección de racha Precipitación (mm) Presión (hPa) Tendencia (hPa) Humedad (%)
2019-08-24 23:00:00 23.2 3 Oeste 15 Oeste 0 -- -- 86
2019-08-24 22:00:00 23.7 9 Oeste 16 Oeste 0 -- -- 82
2019-08-24 21:00:00 23.9 11 Oeste 22 Oeste 0 -- -- 80
2019-08-24 20:00:00 25.4 10 Oeste 18 Oeste 0 -- -- 70
2019-08-24 19:00:00 26.3 6 Oeste 13 Oeste 0 -- -- 68
2019-08-24 18:00:00 25.6 8 Sudoeste 23 Sudoeste 0 -- -- 74
2019-08-24 17:00:00 25.4 12 Sudoeste 23 Sudoeste 0 -- -- 76
2019-08-24 16:00:00 25.2 14 Sudoeste 21 Sudoeste 0 -- -- 75
2019-08-24 15:00:00 25.6 16 Sudoeste 28 Oeste 0 -- -- 74
2019-08-24 14:00:00 25.1 15 Oeste 31 Oeste 0 -- -- 74
2019-08-24 13:00:00 26.3 15 Oeste 30 Oeste 0 -- -- 69
2019-08-24 12:00:00 25.9 10 Oeste 19 Oeste 0 -- -- 70
2019-08-24 11:00:00 26 4 Oeste 20 Sudoeste 0 -- -- 71
2019-08-24 10:00:00 24.5 8 Sudoeste 13 Sudoeste 0 -- -- 79
2019-08-24 09:00:00 24.1 9 Sudoeste 18 Sur 0 -- -- 81
2019-08-24 08:00:00 24.1 0 Calma 18 Oeste 0 -- -- 79
2019-08-24 07:00:00 24.5 7 Oeste 27 Oeste 0 -- -- 71
2019-08-24 06:00:00 23.8 12 Oeste 30 Sudoeste 0 -- -- 77
2019-08-24 05:00:00 24.7 5 Oeste 15 Oeste 0 -- -- 65
2019-08-24 04:00:00 23.2 8 Noroeste 24 Sudoeste 0 -- -- 79
2019-08-24 03:00:00 22.6 3 Oeste 10 Oeste 0 -- -- 90
2019-08-24 02:00:00 22.8 5 Oeste 14 Sudoeste 0 -- -- 90
2019-08-24 01:00:00 22.8 5 Oeste 10 Oeste 0 -- -- 89
2019-08-24 00:00:00 23.1 0 Calma 8 Sur 0 -- -- 87
2019-08-23 23:00:00 23.8 4 Oeste 17 Oeste 0 -- -- 81
2019-08-23 22:00:00 22.9 9 Oeste 19 Oeste 0 -- -- 87
2019-08-23 21:00:00 23.1 7 Oeste 12 Oeste 0 -- -- 84
2019-08-23 20:00:00 23.4 8 Sudoeste 14 Sudoeste 0 -- -- 83
2019-08-23 19:00:00 24 5 Sudoeste 14 Sur 0 -- -- 77
2019-08-23 18:00:00 24.5 12 Sudoeste 32 Oeste 0 -- -- 76
2019-08-23 17:00:00 25.2 19 Oeste 35 Oeste 0 -- -- 69
2019-08-23 16:00:00 28.5 12 Oeste 22 Oeste 0 -- -- 48
2019-08-23 15:00:00 27.7 6 Sudoeste 19 Sudeste 0 -- -- 53
2019-08-23 14:00:00 24.3 19 Sur 25 Sudeste 0 -- -- 76
2019-08-23 13:00:00 25.4 7 Sur 19 Oeste 0 -- -- 70
2019-08-23 12:00:00 24.1 14 Oeste 23 Oeste 0 -- -- 74
2019-08-23 11:00:00 23.7 10 Sudoeste -- -- -- -- -- 79
2019-08-23 10:00:00 -- -- -- -- -- -- -- -- --
2019-08-23 09:00:00 -- -- -- -- -- -- -- -- --
2019-08-23 08:00:00 -- -- -- -- -- -- -- -- --
2019-08-23 07:00:00 -- -- -- -- -- -- -- -- --
2019-08-23 06:00:00 -- -- -- -- -- -- -- -- --
2019-08-23 05:00:00 -- -- -- -- -- -- -- -- --
2019-08-23 04:00:00 -- -- -- -- -- -- -- -- --
2019-08-23 03:00:00 -- -- -- -- -- -- -- -- --
2019-08-23 02:00:00 -- -- -- -- -- -- -- -- --
2019-08-23 01:00:00 -- -- -- -- -- -- -- -- --
2019-08-23 00:00:00 -- -- -- -- -- -- -- -- --
2019-08-22 23:00:00 -- -- -- -- -- -- -- -- --
2019-08-22 22:00:00 -- -- -- -- -- -- -- -- --
2019-08-22 21:00:00 -- -- -- -- -- -- -- -- --
2019-08-22 20:00:00 -- -- -- -- -- -- -- -- --
2019-08-22 19:00:00 -- -- -- -- -- -- -- -- --
2019-08-22 18:00:00 24.9 10 Sur 18 Sudoeste 0 -- -- 74
2019-08-22 17:00:00 24.7 15 Sudoeste 19 Sudoeste 0 -- -- 72
2019-08-22 16:00:00 24.8 14 Sudoeste 20 Sudoeste 0 -- -- 69
2019-08-22 15:00:00 25 10 Sudoeste 18 Sur 0 -- -- 69
2019-08-22 14:00:00 25.3 13 Sur 23 Oeste 0 -- -- 74
2019-08-22 13:00:00 24.2 16 Oeste 26 Oeste 0 -- -- 77
2019-08-22 12:00:00 23.4 15 Sudoeste 18 Sudoeste 0 -- -- 80
2019-08-22 11:00:00 24 8 Sur 10 Sur 0 -- -- 79
2019-08-22 10:00:00 24.5 4 Sudoeste 8 Sudoeste 0 -- -- 74
2019-08-22 09:00:00 23.1 2 Sudoeste 5 Sudoeste 0 -- -- 81
2019-08-22 08:00:00 20 0 Calma 15 Sudoeste 0 -- -- 86
2019-08-22 07:00:00 21.7 5 Sudoeste 13 Sudoeste 0 -- -- 86
2019-08-22 06:00:00 21.8 8 Sudoeste 10 Sudoeste 0 -- -- 85
2019-08-22 05:00:00 21.8 6 Sudoeste 10 Noroeste 0 -- -- 85
2019-08-22 04:00:00 20.9 0 Calma 12 Oeste 0 -- -- 90
2019-08-22 03:00:00 21.8 3 Sudoeste 5 Sudoeste 0 -- -- 90
2019-08-22 02:00:00 21.8 0 Calma 7 Oeste 0 -- -- 87
2019-08-22 01:00:00 21.9 5 Sudoeste 12 Sudoeste 0 -- -- 87
2019-08-22 00:00:00 22.3 5 Sudoeste 10 Oeste 0 -- -- 86
2019-08-21 23:00:00 22.2 3 Oeste 8 Oeste 0 -- -- 85
2019-08-21 22:00:00 22.5 7 Sudoeste 14 Sudoeste 0 -- -- 85
2019-08-21 21:00:00 23 8 Oeste 16 Oeste 0 -- -- 81
2019-08-21 20:00:00 23.4 9 Sudoeste 14 Sudoeste 0 -- -- 75
2019-08-21 19:00:00 24 10 Sudoeste 18 Sudoeste 0 -- -- 72
2019-08-21 18:00:00 24.3 14 Sudoeste 24 Oeste 0 -- -- 71
2019-08-21 17:00:00 25.2 13 Oeste 22 Oeste 0 -- -- 67
2019-08-21 16:00:00 25.3 14 Sudoeste 20 Sudoeste 0 -- -- 67
2019-08-21 15:00:00 24.4 14 Sudoeste 28 Sudoeste 0 -- -- 67
2019-08-21 14:00:00 24.7 15 Oeste 23 Oeste 0 -- -- 69
2019-08-21 13:00:00 24.6 17 Sudoeste 21 Sudoeste 0 -- -- 72
2019-08-21 12:00:00 24.2 13 Sudoeste 16 Sudoeste 0 -- -- 74
2019-08-21 11:00:00 23.6 11 Sudoeste 15 Sudoeste 0 -- -- 74
2019-08-21 10:00:00 23.3 10 Sudoeste 13 Sudoeste 0 -- -- 78
2019-08-21 09:00:00 23 6 Sudoeste 9 Sudoeste 0 -- -- 81
2019-08-21 08:00:00 21 0 Calma 13 Oeste 0 -- -- 89
2019-08-21 07:00:00 21.4 4 Oeste 13 Oeste 0 -- -- 87
2019-08-21 06:00:00 22 6 Oeste 14 Sudoeste 0 -- -- 86
2019-08-21 05:00:00 22 7 Oeste 14 Oeste 0 -- -- 86
2019-08-21 04:00:00 22 5 Oeste 14 Oeste 0 -- -- 86
2019-08-21 03:00:00 22.5 6 Oeste 13 Oeste 0 -- -- 81
2019-08-21 02:00:00 22.3 3 Oeste 9 Oeste 0 -- -- 75
2019-08-21 01:00:00 22.2 0 Calma 5 Noroeste 0 -- -- 74
2019-08-21 00:00:00 22.8 0 Calma 5 Este 0 -- -- 71
2019-08-20 23:00:00 23.1 0 Calma 8 Este 0 -- -- 66
2019-08-20 22:00:00 23.6 0 Calma 15 Sudoeste 0 -- -- 69
2019-08-20 21:00:00 23.7 11 Sur 14 Sudoeste 0 -- -- 75
2019-08-20 20:00:00 25 5 Oeste 14 Oeste 0 -- -- 70
2019-08-20 19:00:00 25.1 12 Sudoeste 20 Sudoeste 0 -- -- 69
2019-08-20 18:00:00 27 9 Oeste 22 Oeste 0 -- -- 59
2019-08-20 17:00:00 26.1 15 Oeste 24 Oeste 0 -- -- 64
2019-08-20 16:00:00 25.5 14 Oeste 24 Oeste 0 -- -- 66
2019-08-20 15:00:00 26.3 12 Oeste 25 Oeste 0 -- -- 65
2019-08-20 14:00:00 25.5 14 Oeste 24 Oeste 0 -- -- 69
2019-08-20 13:00:00 25.3 12 Oeste 20 Oeste 0 -- -- 67
2019-08-20 12:00:00 24.9 11 Oeste 19 Sudoeste 0 -- -- 72
2019-08-20 11:00:00 23.7 12 Oeste 22 Oeste 0 -- -- 76
2019-08-20 10:00:00 23.2 7 Oeste 12 Oeste 0 -- -- 77
2019-08-20 09:00:00 22.2 0 Calma -- -- 0 -- -- 90
2019-08-20 08:00:00 19.9 0 Calma 8 Oeste 0 -- -- 92
2019-08-20 07:00:00 20.2 0 Calma 6 Oeste 0 -- -- 92
2019-08-20 06:00:00 20.5 0 Calma 6 Nordeste 0 -- -- 92
2019-08-20 05:00:00 21 0 Calma 9 Oeste 0 -- -- 92
2019-08-20 04:00:00 21.5 0 Calma 10 Sudoeste 0 -- -- 92
2019-08-20 03:00:00 21.5 2 Sudoeste 9 Sudoeste 0 -- -- 92
2019-08-20 02:00:00 21.8 2 Oeste 14 Oeste 0 -- -- 91
2019-08-20 01:00:00 22.1 5 Oeste 10 Oeste 0 -- -- 91
2019-08-20 00:00:00 22.2 6 Oeste 11 Oeste 0 -- -- 90
2019-08-19 23:00:00 22.2 2 Oeste 10 Sudoeste 0 -- -- 90
2019-08-19 22:00:00 22.5 5 Oeste 10 Sudoeste 0 -- -- 89
2019-08-19 21:00:00 22.7 10 Sudoeste 15 Sur 0 -- -- 89
2019-08-19 20:00:00 23.1 13 Sudoeste 24 Oeste 0 -- -- 85
2019-08-19 19:00:00 24.3 13 Oeste 26 Oeste 0 -- -- 79
2019-08-19 18:00:00 24.9 12 Oeste 24 Oeste 0 -- -- 75
2019-08-19 17:00:00 25.9 11 Oeste 24 Oeste 0 -- -- 72
2019-08-19 16:00:00 26.1 12 Oeste 26 Sudoeste 0 -- -- 71
2019-08-19 15:00:00 26.8 16 Sudoeste 26 Sudoeste 0 -- -- 74
2019-08-19 14:00:00 26.3 11 Sudoeste 24 Sudoeste 0 -- -- 72
2019-08-19 13:00:00 26.3 11 Oeste 30 Oeste 0 -- -- 75
2019-08-19 12:00:00 27.5 7 Oeste 35 Nordeste 0 -- -- 53
2019-08-19 11:00:00 26.2 5 Oeste 20 Oeste 0 -- -- 66
2019-08-19 10:00:00 26.3 3 Oeste 13 Oeste 0 -- -- 69
2019-08-19 09:00:00 23.8 5 Oeste 9 Oeste 0 -- -- 76
2019-08-19 08:00:00 22.1 5 Oeste 8 Oeste 0 -- -- 76
2019-08-19 07:00:00 21.7 3 Noroeste 8 Noroeste 0 -- -- 79
2019-08-19 06:00:00 21.5 0 Calma 10 Este 0 -- -- 80
2019-08-19 05:00:00 22.4 0 Calma 8 Sudeste 0 -- -- 80
2019-08-19 04:00:00 22.6 2 Noroeste 9 Oeste 0 -- -- 79
2019-08-19 03:00:00 24.1 5 Oeste 12 Oeste 0 -- -- 74
2019-08-19 02:00:00 24.3 5 Oeste 15 Oeste 0 -- -- 72
2019-08-19 01:00:00 24.6 11 Oeste 18 Oeste 0 -- -- 72
2019-08-19 00:00:00 23.5 3 Oeste 17 Sudeste 0 -- -- 85
2019-08-18 23:00:00 23.6 5 Sudoeste 10 Oeste 0 -- -- 86
2019-08-18 22:00:00 23.6 6 Oeste 11 Oeste 0 -- -- 86
2019-08-18 21:00:00 23.6 6 Oeste 13 Oeste 0 -- -- 85
2019-08-18 20:00:00 24 9 Oeste 15 Oeste 0 -- -- 82
2019-08-18 19:00:00 25.2 5 Sudoeste 14 Sudoeste 0 -- -- 75
2019-08-18 18:00:00 24.9 12 Sudoeste 22 Sudoeste 0 -- -- 76
2019-08-18 17:00:00 25.7 10 Oeste 20 Sudoeste 0 -- -- 74
2019-08-18 16:00:00 25 9 Sudoeste 27 Sudoeste 0 -- -- 75
2019-08-18 15:00:00 25.5 17 Sudoeste 24 Sudoeste 0 -- -- 75
2019-08-18 14:00:00 25.6 16 Sudoeste 22 Sudoeste 0 -- -- 72
2019-08-18 13:00:00 25.9 12 Oeste 22 Oeste 0 -- -- 71
2019-08-18 12:00:00 25.8 15 Sudoeste 20 Sudoeste 0 -- -- 72
2019-08-18 11:00:00 25.2 10 Oeste 18 Sudoeste 0 -- -- 75
2019-08-18 10:00:00 25.2 6 Sudoeste 14 Sudoeste 0 -- -- 76
2019-08-18 09:00:00 24.9 0 Calma 16 Nordeste 0 -- -- 62
2019-08-18 08:00:00 22.1 0 Calma 13 Oeste 0 -- -- 90
2019-08-18 07:00:00 22.7 3 Sudoeste 14 Oeste 0 -- -- 87
2019-08-18 06:00:00 23.2 7 Oeste 18 Sudoeste 0 -- -- 86
2019-08-18 05:00:00 23.9 8 Oeste 19 Oeste 0 -- -- 77
2019-08-18 04:00:00 24.7 10 Oeste 21 Oeste 0 -- -- 70
2019-08-18 03:00:00 22.7 6 Oeste 18 Oeste 0 -- -- 86
2019-08-18 02:00:00 22.4 4 Noroeste 14 Oeste 0 -- -- 91
2019-08-18 01:00:00 23 11 Oeste 18 Oeste 0 -- -- 89
2019-08-18 00:00:00 23.4 8 Oeste 17 Oeste 0 -- -- 81
2019-08-17 23:00:00 23.7 6 Oeste 14 Oeste 0 -- -- 77
2019-08-17 22:00:00 24 6 Oeste 10 Oeste 0 -- -- 76
2019-08-17 21:00:00 24.6 6 Oeste 14 Oeste 0 -- -- 72
2019-08-17 20:00:00 24.8 4 Sudoeste 7 Sudoeste 0 -- -- 72
2019-08-17 19:00:00 25.5 4 Sur 16 Sudoeste 0 -- -- 74
2019-08-17 18:00:00 26.1 10 Oeste 22 Oeste 0 -- -- 70
2019-08-17 17:00:00 25.8 13 Oeste 33 Oeste 0 -- -- 67
2019-08-17 16:00:00 26.4 13 Oeste 28 Oeste 0 -- -- 66
2019-08-17 15:00:00 25.6 16 Oeste 28 Oeste 0 -- -- 71
2019-08-17 14:00:00 26 14 Oeste 23 Sudoeste 0 -- -- 72
2019-08-17 13:00:00 24.9 11 Oeste 28 Sudoeste 0 -- -- 76
2019-08-17 12:00:00 24.3 17 Sudoeste 22 Sudoeste 0 -- -- 79
2019-08-17 11:00:00 25.4 6 Sudoeste -- -- -- -- -- 76
2019-08-17 10:00:00 -- -- -- -- -- -- -- -- --
2019-08-17 09:00:00 -- -- -- -- -- -- -- -- --
2019-08-17 08:00:00 -- -- -- -- -- -- -- -- --
2019-08-17 07:00:00 -- -- -- -- -- -- -- -- --
2019-08-17 06:00:00 -- -- -- -- -- -- -- -- --
2019-08-17 05:00:00 -- -- -- -- -- -- -- -- --
2019-08-17 04:00:00 -- -- -- -- -- -- -- -- --
2019-08-17 03:00:00 -- -- -- -- -- -- -- -- --
2019-08-17 02:00:00 -- -- -- -- -- -- -- -- --
2019-08-17 01:00:00 -- -- -- -- -- -- -- -- --
2019-08-17 00:00:00 -- -- -- -- -- -- -- -- --
2019-08-16 23:00:00 -- -- -- -- -- -- -- -- --
2019-08-16 22:00:00 -- -- -- -- -- -- -- -- --
2019-08-16 21:00:00 -- -- -- -- -- -- -- -- --
2019-08-16 20:00:00 -- -- -- -- -- -- -- -- --
2019-08-16 19:00:00 -- -- -- -- -- -- -- -- --
2019-08-16 18:00:00 26 6 Oeste 21 Sudoeste 0 -- -- 69
2019-08-16 17:00:00 24.8 17 Sudoeste 23 Sudoeste 0 -- -- 75
2019-08-16 16:00:00 26.5 9 Oeste 19 Sudoeste 0 -- -- 66
2019-08-16 15:00:00 26.5 6 Sudoeste 17 Sudoeste 0 -- -- 69
2019-08-16 14:00:00 25.1 10 Sudoeste 19 Sudoeste 0 -- -- 72
2019-08-16 13:00:00 25.1 9 Sudoeste 22 Oeste 0 -- -- 72
2019-08-16 12:00:00 24.1 11 Oeste 19 Oeste 0 -- -- 77
2019-08-16 11:00:00 24.5 12 Sudoeste 16 Sudoeste 0 -- -- 80
2019-08-16 10:00:00 23.6 0 Calma 8 Sudoeste 0 -- -- 86
2019-08-16 09:00:00 21.8 0 Calma -- -- -- -- -- 89
2019-08-16 08:00:00 -- -- -- -- -- -- -- -- --
2019-08-16 07:00:00 -- -- -- -- -- -- -- -- --
2019-08-16 06:00:00 21.2 0 Calma 8 Sur 0 -- -- 91
2019-08-16 05:00:00 21.8 4 Sur 14 Oeste 0 -- -- 91
2019-08-16 04:00:00 21.7 5 Oeste 10 Oeste 0 -- -- 91
2019-08-16 03:00:00 22 3 Sudoeste 8 Sudoeste 0 -- -- 91
2019-08-16 02:00:00 22.1 2 Sudoeste 12 Oeste 0 -- -- 89
2019-08-16 01:00:00 22.2 8 Oeste 17 Oeste 0 -- -- 87
2019-08-16 00:00:00 22.5 8 Oeste 17 Oeste 0 -- -- 86
2019-08-15 23:00:00 22.7 8 Oeste 15 Oeste 0 -- -- 86
2019-08-15 22:00:00 22.6 6 Oeste 15 Oeste 0 -- -- 85
2019-08-15 21:00:00 22.9 6 Sudoeste 10 Sudoeste 0 -- -- 80
2019-08-15 20:00:00 24.3 6 Oeste 17 Oeste 0 -- -- 72
2019-08-15 19:00:00 24.9 9 Oeste 21 Oeste 0 -- -- 71
2019-08-15 18:00:00 25.4 13 Oeste 19 Sudoeste 0 -- -- 70
2019-08-15 17:00:00 24.7 11 Sudoeste 17 Sudoeste 0 -- -- 71
2019-08-15 16:00:00 26.4 10 Sudoeste 14 Sudoeste 0 -- -- 69
2019-08-15 15:00:00 26.1 10 Sudoeste 16 Sudoeste 0 -- -- 64
2019-08-15 14:00:00 25.2 11 Sudoeste 15 Sudoeste 0 -- -- 65
2019-08-15 13:00:00 24.2 10 Sudoeste 17 Sudoeste 0 -- -- 70
2019-08-15 12:00:00 23.6 12 Sudoeste 16 Sudoeste 0 -- -- 76
2019-08-15 11:00:00 24 8 Sudoeste 13 Sudoeste 0 -- -- 76
2019-08-15 10:00:00 23.6 4 Sudoeste 7 Sudoeste 0 -- -- 80
2019-08-15 09:00:00 22.2 0 Calma 5 Sudoeste 0 -- -- 87
2019-08-15 08:00:00 20.6 0 Calma 7 Oeste 0 -- -- 90
2019-08-15 07:00:00 20.4 4 Noroeste 7 Noroeste 0 -- -- 86
2019-08-15 06:00:00 19.4 0 Calma 6 Sudoeste 0 -- -- 87
2019-08-15 05:00:00 20.1 0 Calma 4 Sudoeste 0 -- -- 87
2019-08-15 04:00:00 21 0 Calma 5 Noroeste 0 -- -- 87
2019-08-15 03:00:00 21.2 0 Calma 5 Noroeste 0 -- -- 87
2019-08-15 02:00:00 21.8 0 Calma 6 Sudoeste 0 -- -- 87
2019-08-15 01:00:00 22.3 5 Sudoeste 10 Oeste 0 -- -- 86
2019-08-15 00:00:00 22.4 5 Oeste 10 Oeste 0 -- -- 85
2019-08-14 23:00:00 22.3 0 Calma 5 Sudeste 0 -- -- 85
2019-08-14 22:00:00 22.7 4 Este 7 Sudeste 0 -- -- 82
2019-08-14 21:00:00 23.1 3 Sur 10 Sudoeste 0 -- -- 77
2019-08-14 20:00:00 24.3 8 Sudoeste 17 Oeste 0 -- -- 72
2019-08-14 19:00:00 25.1 9 Oeste 23 Oeste 0 -- -- 69
2019-08-14 18:00:00 25.3 10 Sudoeste 18 Sudoeste 0 -- -- 69
2019-08-14 17:00:00 25.1 14 Sudoeste 18 Sudoeste 0 -- -- 70
2019-08-14 16:00:00 25.3 13 Sur 18 Sur 0 -- -- 70
2019-08-14 15:00:00 25.6 14 Sur 18 Sudoeste 0 -- -- 67
2019-08-14 14:00:00 24.3 15 Sudoeste 21 Oeste 0 -- -- 71
2019-08-14 13:00:00 24.8 11 Sudoeste 14 Sudoeste 0 -- -- 69
2019-08-14 12:00:00 24.9 8 Sudoeste 10 Sudoeste 0 -- -- 67
2019-08-14 11:00:00 24.7 6 Sur 9 Sur 0 -- -- 69
2019-08-14 10:00:00 24 5 Sudoeste 9 Sudoeste 0 -- -- 71
2019-08-14 09:00:00 23.8 0 Calma 3 Noroeste 0 -- -- 70
2019-08-14 08:00:00 20.2 0 Calma 5 Noroeste 0 -- -- 75
2019-08-14 07:00:00 20.2 0 Calma 5 Noroeste 0 -- -- 80
2019-08-14 06:00:00 20.6 0 Calma 13 Oeste 0 -- -- 79
2019-08-14 05:00:00 21.6 6 Oeste 16 Noroeste 0 -- -- 79
2019-08-14 04:00:00 21.4 5 Oeste 11 Noroeste 0 -- -- 79
2019-08-14 03:00:00 21.4 0 Calma -- -- 0 -- -- 76
2019-08-14 02:00:00 21.9 0 Calma 10 Oeste 0 -- -- 74
2019-08-14 01:00:00 22.7 4 Oeste 11 Oeste 0 -- -- 72
2019-08-14 00:00:00 22.2 0 Calma 9 Noroeste 0 -- -- 75
2019-08-13 23:00:00 22.6 4 Noroeste 12 Oeste 0 -- -- 76
2019-08-13 22:00:00 23.1 8 Oeste 18 Oeste 0 -- -- 74
2019-08-13 21:00:00 24.3 4 Oeste 9 Oeste 0 -- -- 62
2019-08-13 20:00:00 24.6 6 Sudoeste 15 Sudoeste 0 -- -- 67
2019-08-13 19:00:00 25 9 Sudoeste 21 Oeste 0 -- -- 66
2019-08-13 18:00:00 24.9 14 Oeste 21 Sudoeste 0 -- -- 65
2019-08-13 17:00:00 25.2 14 Sudoeste 21 Sudoeste 0 -- -- 66
2019-08-13 16:00:00 26.2 13 Sudoeste 17 Sudoeste 0 -- -- 62
2019-08-13 15:00:00 25.7 11 Sudoeste 26 Oeste 0 -- -- 62
2019-08-13 14:00:00 25.9 13 Oeste 22 Oeste 0 -- -- 62
2019-08-13 13:00:00 25.3 11 Sudoeste 19 Sudoeste 0 -- -- 65
2019-08-13 12:00:00 24.5 13 Sudoeste 20 Sudoeste 0 -- -- 67
2019-08-13 11:00:00 24.5 10 Oeste 17 Oeste 0 -- -- 69
2019-08-13 10:00:00 24 7 Oeste 15 Oeste 0 -- -- 72
2019-08-13 09:00:00 23.4 5 Oeste 11 Oeste 0 -- -- 75
2019-08-13 08:00:00 21.7 3 Oeste 9 Sudoeste 0 -- -- 83
2019-08-13 07:00:00 21.3 0 Calma 5 Oeste 0 -- -- 82
2019-08-13 06:00:00 20.2 0 Calma 6 Norte 0 -- -- 83
2019-08-13 05:00:00 21 0 Calma 4 Noroeste 0 -- -- 82
2019-08-13 04:00:00 21.7 0 Calma 8 Sudoeste 0 -- -- 81
2019-08-13 03:00:00 22.2 5 Sudoeste 18 Oeste 0 -- -- 82
2019-08-13 02:00:00 22.8 8 Oeste 16 Oeste 0 -- -- 80
2019-08-13 01:00:00 22.6 6 Oeste 12 Oeste 0 -- -- 81
2019-08-13 00:00:00 22.7 5 Oeste 9 Oeste 0 -- -- 82
2019-08-12 23:00:00 22.8 4 Oeste 11 Oeste 0 -- -- 81
2019-08-12 22:00:00 23 3 Oeste 13 Sudoeste 0 -- -- 79
2019-08-12 21:00:00 23.4 9 Sudoeste 13 Sudoeste 0 -- -- 79
2019-08-12 20:00:00 24.5 8 Oeste 21 Sudoeste 0 -- -- 72
2019-08-12 19:00:00 24.2 17 Sudoeste 26 Sudoeste 0 -- -- 73
2019-08-12 18:00:00 24.6 20 Sudoeste 25 Sudoeste 0 -- -- 72
2019-08-12 17:00:00 25.1 10 Sudoeste 25 Sudoeste 0 -- -- 67
2019-08-12 16:00:00 25.3 15 Sudoeste 23 Sudoeste 0 -- -- 64
2019-08-12 15:00:00 25.5 18 Sudoeste 22 Sudoeste 0 -- -- 66
2019-08-12 14:00:00 25.9 15 Sudoeste 22 Sudoeste 0 -- -- 67
2019-08-12 13:00:00 25.3 13 Sudoeste 17 Sudoeste 0 -- -- 71
2019-08-12 12:00:00 25.1 12 Sudoeste 18 Sudoeste 0 -- -- 72
2019-08-12 11:00:00 24.3 14 Sudoeste 18 Sudoeste 0 -- -- 75
2019-08-12 10:00:00 23.9 9 Sudoeste 12 Sudoeste 0 -- -- 77
2019-08-12 09:00:00 24.1 3 Oeste 8 Oeste 0 -- -- 74
2019-08-12 08:00:00 22.2 0 Calma 5 Noroeste 0 -- -- 71
2019-08-12 07:00:00 21.4 5 Noroeste 9 Noroeste 0 -- -- 70
2019-08-12 06:00:00 21 0 Calma 5 Noroeste 0 -- -- 74
2019-08-12 05:00:00 21.4 0 Calma 8 Este 0 -- -- 77
2019-08-12 04:00:00 21.6 0 Calma 10 Noroeste 0 -- -- 77
2019-08-12 03:00:00 21.9 3 Norte 21 Oeste 0 -- -- 79
2019-08-12 02:00:00 22.5 7 Oeste 19 Oeste 0 -- -- 81
2019-08-12 01:00:00 22.6 8 Oeste 15 Oeste 0 -- -- 80
2019-08-12 00:00:00 22.8 5 Oeste 13 Oeste 0 -- -- 79
2019-08-11 23:00:00 22.9 3 Oeste 9 Sudoeste 0 -- -- 77
2019-08-11 22:00:00 23.1 8 Sudoeste 17 Oeste 0 -- -- 79
2019-08-11 21:00:00 23.6 11 Oeste 19 Oeste 0 -- -- 75
2019-08-11 20:00:00 24.7 8 Oeste 17 Sudoeste 0 -- -- 72
2019-08-11 19:00:00 25.1 11 Sudoeste 18 Oeste 0 -- -- 69
2019-08-11 18:00:00 25.7 12 Oeste 22 Oeste 0 -- -- 69
2019-08-11 17:00:00 26.6 8 Sur 14 Sudoeste 0 -- -- 72
2019-08-11 16:00:00 26.8 15 Sudoeste 21 Sudoeste 0 -- -- 70
2019-08-11 15:00:00 25.5 12 Sudoeste 22 Oeste 0 -- -- 71
2019-08-11 14:00:00 26.1 10 Oeste 17 Oeste 0 -- -- 71
2019-08-11 13:00:00 24.7 12 Sudoeste 14 Sudoeste 0 -- -- 72
2019-08-11 12:00:00 25.1 9 Sudoeste 16 Oeste 0 -- -- 76
2019-08-11 11:00:00 25.4 9 Sudoeste 14 Oeste 0 -- -- 72
2019-08-11 10:00:00 -- -- -- -- -- -- -- -- --
2019-08-11 09:00:00 -- -- -- -- -- -- -- -- --
2019-08-11 08:00:00 -- -- -- -- -- -- -- -- --
2019-08-11 07:00:00 -- -- -- -- -- -- -- -- --
2019-08-11 06:00:00 22.2 4 Noroeste 11 Oeste 0 -- -- 86
2019-08-11 05:00:00 22.3 4 Oeste 9 Oeste 0 -- -- 86
2019-08-11 04:00:00 22.1 0 Calma 10 Oeste 0 -- -- 89
2019-08-11 03:00:00 22.7 6 Oeste 10 Oeste 0 -- -- 89
2019-08-11 02:00:00 22.8 4 Oeste 7 Oeste 0 -- -- 90
2019-08-11 01:00:00 22.6 3 Oeste 6 Oeste 0 -- -- 90
2019-08-11 00:00:00 23 6 Sudoeste 7 Sudoeste 0 -- -- 90
2019-08-10 23:00:00 23.2 3 Oeste 11 Oeste 0 -- -- 87
2019-08-10 22:00:00 23.2 7 Sudoeste 10 Sudoeste 0 -- -- 87
2019-08-10 21:00:00 23.6 9 Sudoeste 18 Sudoeste 0 -- -- 86
2019-08-10 20:00:00 24.6 10 Oeste 18 Oeste 0 -- -- 77
2019-08-10 19:00:00 24.9 11 Sudoeste 18 Sudoeste 0 -- -- 75
2019-08-10 18:00:00 24.5 14 Sudoeste 18 Sur 0 -- -- 76
2019-08-10 17:00:00 25.7 12 Sur 14 Sur 0 -- -- 72
2019-08-10 16:00:00 26.3 11 Sudoeste 21 Sudoeste 0 -- -- 66
2019-08-10 15:00:00 26.4 12 Oeste 21 Oeste 0 -- -- 66
2019-08-10 14:00:00 25 14 Sudoeste 17 Sudoeste 0 -- -- 71
2019-08-10 13:00:00 24.7 12 Sudoeste 17 Sudoeste 0 -- -- 72
2019-08-10 12:00:00 24.5 11 Sudoeste 20 Oeste 0 -- -- 74
2019-08-10 11:00:00 24.3 12 Oeste 20 Oeste 0 -- -- 77
2019-08-10 10:00:00 24.3 9 Oeste 16 Oeste 0 -- -- 77
2019-08-10 09:00:00 24.4 3 Oeste 11 Oeste 0 -- -- 76
2019-08-10 08:00:00 22.2 0 Calma 6 Sudoeste 0 -- -- 86
2019-08-10 07:00:00 22.5 0 Calma 12 Oeste 0 -- -- 85
2019-08-10 06:00:00 22.5 7 Oeste 13 Noroeste 0 -- -- 84
2019-08-10 05:00:00 21.7 5 Oeste 9 Oeste 0 -- -- 89
2019-08-10 04:00:00 22.2 0 Calma 6 Oeste 0 -- -- 89
2019-08-10 03:00:00 22.4 4 Sudoeste 12 Oeste 0 -- -- 89
2019-08-10 02:00:00 22.5 6 Oeste 12 Oeste 0 -- -- 89
2019-08-10 01:00:00 22.4 6 Oeste 10 Oeste 0 -- -- 87
2019-08-10 00:00:00 22.5 5 Sudoeste 10 Sudoeste 0 -- -- 86
2019-08-09 23:00:00 23 3 Sudoeste 12 Oeste 0 -- -- 81
2019-08-09 22:00:00 23.2 6 Oeste 18 Oeste 0 -- -- 79
2019-08-09 21:00:00 23.6 10 Oeste 19 Oeste 0 -- -- 76
2019-08-09 20:00:00 25.1 5 Sudoeste 25 Este 0 -- -- 71
2019-08-09 19:00:00 24.9 19 Este 27 Este 0 -- -- 72
2019-08-09 18:00:00 25.5 10 Este 22 Este 0 -- -- 69
2019-08-09 17:00:00 25.4 7 Sudoeste 17 Sudoeste 0 -- -- 69
2019-08-09 16:00:00 25 9 Sur 17 Sudeste 0 -- -- 72
2019-08-09 15:00:00 26.4 10 Sudoeste 21 Oeste 0 -- -- 67
2019-08-09 14:00:00 25.1 11 Oeste 39 Este 0 -- -- 71
2019-08-09 13:00:00 25.4 30 Este 42 Este 0 -- -- 67
2019-08-09 12:00:00 24.8 29 Este 74 Este 0 -- -- 70
2019-08-09 11:00:00 24.1 4 Sur 14 Sudeste 0 -- -- 75
2019-08-09 10:00:00 23.2 0 Calma 10 Oeste 0 -- -- 84
2019-08-09 09:00:00 22.4 0 Calma 6 Oeste 0 -- -- 87
2019-08-09 08:00:00 22.3 0 Calma 10 Oeste 0 -- -- 89
2019-08-09 07:00:00 22.4 6 Sudoeste 9 Sudoeste 0 -- -- 87
2019-08-09 06:00:00 21.5 0 Calma 4 Nordeste 0 -- -- 85
2019-08-09 05:00:00 21.6 3 Nordeste 7 Este 0 -- -- 85
2019-08-09 04:00:00 21.6 0 Calma 6 Sudeste 0 -- -- 89
2019-08-09 03:00:00 21.9 4 Sudeste 9 Sudeste 0 -- -- 90
2019-08-09 02:00:00 22.4 2 Sudoeste 5 Sudoeste 0 -- -- 89
2019-08-09 01:00:00 22.4 2 Oeste 9 Oeste 0 -- -- 86
2019-08-09 00:00:00 22.6 3 Oeste 8 Sudoeste 0 -- -- 85
2019-08-08 23:00:00 22.7 5 Sudoeste 13 Oeste 0 -- -- 84
2019-08-08 22:00:00 22.8 6 Oeste 15 Noroeste 0 -- -- 82
2019-08-08 21:00:00 23.5 5 Oeste 19 Este 0 -- -- 78
2019-08-08 20:00:00 23.6 15 Este 28 Este 0 -- -- 76
2019-08-08 19:00:00 23.8 21 Este 27 Este 0 -- -- 76
2019-08-08 18:00:00 24.4 24 Este 35 Este 0 -- -- 72
2019-08-08 17:00:00 24.7 26 Este 36 Este 0 -- -- 71
2019-08-08 16:00:00 24.3 28 Este 38 Este 0 -- -- 72
2019-08-08 15:00:00 24.2 31 Este 71 Este 0 -- -- 72
2019-08-08 14:00:00 24.6 28 Este 70 Este 0 -- -- 67
2019-08-08 13:00:00 25.3 12 Sudoeste 15 Sudoeste 0 -- -- 70
2019-08-08 12:00:00 24.8 7 Sudeste 12 Sudeste 0 -- -- 74
2019-08-08 11:00:00 24.1 9 Sudoeste 17 Sudoeste 0 -- -- 74
2019-08-08 10:00:00 23.6 7 Oeste 12 Oeste 0 -- -- 77
2019-08-08 09:00:00 22.8 0 Calma 8 Oeste 0 -- -- 85
2019-08-08 08:00:00 21.7 3 Oeste 10 Oeste 0 -- -- 87
2019-08-08 07:00:00 20.8 0 Calma 6 Sudeste 0 -- -- 86
2019-08-08 06:00:00 21 0 Calma 9 Nordeste 0 -- -- 86
2019-08-08 05:00:00 20.7 5 Nordeste 12 Este 0 -- -- 85
2019-08-08 04:00:00 21.3 0 Calma 6 Sudeste 0 -- -- 89
2019-08-08 03:00:00 21.8 5 Sudoeste 10 Sudoeste 0 -- -- 87
2019-08-08 02:00:00 22.1 3 Oeste 9 Sudoeste 0 -- -- 86
2019-08-08 01:00:00 22.3 5 Sudoeste 9 Sudoeste 0 -- -- 85
2019-08-08 00:00:00 22.5 4 Oeste 8 Oeste 0 -- -- 82
2019-08-07 23:00:00 22.4 3 Nordeste 9 Sur 0 -- -- 84
2019-08-07 22:00:00 22.5 10 Sur 15 Sur 0 -- -- 84
2019-08-07 21:00:00 22.9 7 Sudoeste 20 Oeste 0 -- -- 79
2019-08-07 20:00:00 23.5 12 Oeste 24 Sudoeste 0 -- -- 75
2019-08-07 19:00:00 24.4 11 Oeste 21 Oeste 0 -- -- 70
2019-08-07 18:00:00 25.1 12 Sudoeste 19 Oeste 0 -- -- 70
2019-08-07 17:00:00 25.6 11 Oeste 21 Oeste 0 -- -- 67
2019-08-07 16:00:00 25.3 12 Sudoeste 19 Sudoeste 0 -- -- 70
2019-08-07 15:00:00 24.7 12 Sudoeste 22 Sudoeste 0 -- -- 71
2019-08-07 14:00:00 24.6 11 Oeste 20 Sudoeste 0 -- -- 70
2019-08-07 13:00:00 24.8 11 Sudoeste 17 Sudoeste 0 -- -- 72
2019-08-07 12:00:00 24.9 10 Oeste 17 Oeste 0 -- -- 70
2019-08-07 11:00:00 24.6 4 Sur 9 Sudoeste 0 -- -- 71
2019-08-07 10:00:00 23.6 5 Sudoeste 9 Sudoeste 0 -- -- 75
2019-08-07 09:00:00 22.8 0 Calma 5 Noroeste 0 -- -- 81
2019-08-07 08:00:00 19.8 0 Calma -- -- 0 -- -- 87
2019-08-07 07:00:00 19.5 0 Calma 5 Noroeste 0 -- -- 87
2019-08-07 06:00:00 20 4 Noroeste 6 Noroeste 0 -- -- 89
2019-08-07 05:00:00 20.2 0 Calma 4 Norte 0 -- -- 89
2019-08-07 04:00:00 20.7 0 Calma 6 Sur 0 -- -- 90
2019-08-07 03:00:00 21.4 0 Calma 5 Sudeste 0 -- -- 87
2019-08-07 02:00:00 21.5 0 Calma 7 Oeste 0 -- -- 85
2019-08-07 01:00:00 22.1 5 Oeste 14 Oeste 0 -- -- 82
2019-08-07 00:00:00 22.4 8 Oeste 18 Oeste 0 -- -- 81
2019-08-06 23:00:00 22.7 6 Oeste 15 Oeste 0 -- -- 79
2019-08-06 22:00:00 23.1 6 Oeste 13 Oeste 0 -- -- 78
2019-08-06 21:00:00 23.2 2 Oeste 9 Sur 0 -- -- 75
2019-08-06 20:00:00 23.3 10 Sur 16 Sudoeste 0 -- -- 80
2019-08-06 19:00:00 24.1 11 Sudoeste 21 Sudoeste 0 -- -- 74
2019-08-06 18:00:00 25.4 13 Oeste 30 Oeste 0 -- -- 71
2019-08-06 17:00:00 25.3 15 Oeste 29 Oeste 0 -- -- 66
2019-08-06 16:00:00 24.6 13 Sudoeste 17 Sudoeste 0 -- -- 66
2019-08-06 15:00:00 26.2 11 Sur 17 Sudoeste 0 -- -- 64
2019-08-06 14:00:00 24.3 15 Sudoeste 21 Oeste 0 -- -- 67
2019-08-06 13:00:00 24.6 13 Oeste 23 Oeste 0 -- -- 69
2019-08-06 12:00:00 23.7 10 Sudoeste 12 Sudoeste 0 -- -- 71
2019-08-06 11:00:00 24.8 0 Calma -- -- 0 -- -- 67
2019-08-06 10:00:00 23.8 0 Calma -- -- 0 -- -- 74
2019-08-06 09:00:00 23.4 0 Calma -- -- 0 -- -- 70
2019-08-06 08:00:00 20 0 Calma -- -- 0 -- -- 89
2019-08-06 07:00:00 19.5 0 Calma 9 Oeste 0 -- -- 91
2019-08-06 06:00:00 19.9 2 Noroeste 8 Oeste 0 -- -- 91
2019-08-06 05:00:00 20.4 0 Calma 8 Oeste 0 -- -- 91
2019-08-06 04:00:00 20.7 0 Calma 5 Oeste 0 -- -- 90
2019-08-06 03:00:00 21.5 4 Sudoeste 10 Oeste 0 -- -- 90
2019-08-06 02:00:00 21.8 5 Oeste 12 Oeste 0 -- -- 89
2019-08-06 01:00:00 21.9 4 Oeste 10 Oeste 0 -- -- 87
2019-08-06 00:00:00 21.8 4 Oeste 9 Oeste 0 -- -- 87
2019-08-05 23:00:00 22.2 2 Sudoeste 10 Sudoeste 0 -- -- 86
2019-08-05 22:00:00 22.6 5 Oeste 14 Oeste 0 -- -- 82
2019-08-05 21:00:00 23.3 5 Oeste 14 Noroeste 0 -- -- 79
2019-08-05 20:00:00 23.6 9 Sudoeste 18 Sur 0 -- -- 77
2019-08-05 19:00:00 23.9 13 Sur 17 Sur 0 -- -- 79
2019-08-05 18:00:00 24.8 11 Sudoeste 23 Sudoeste 0 -- -- 75
2019-08-05 17:00:00 24 18 Sudoeste 24 Sudoeste 0 -- -- 71
2019-08-05 16:00:00 24.7 13 Oeste 28 Sudoeste 0 -- -- 71
2019-08-05 15:00:00 24.2 22 Sudoeste 26 Sudoeste 0 -- -- 71
2019-08-05 14:00:00 25 19 Sudoeste 23 Sudoeste 0 -- -- 71
2019-08-05 13:00:00 24.6 16 Sur 47 Sudoeste 0 -- -- 74
2019-08-05 12:00:00 24.3 12 Oeste 20 Sudoeste 0 -- -- 70
2019-08-05 11:00:00 24.5 6 Oeste 13 Oeste 0 -- -- 67
2019-08-05 10:00:00 23.8 6 Sudoeste 8 Sur 0 -- -- 69
2019-08-05 09:00:00 22.8 0 Calma 3 Nordeste 0 -- -- 71
2019-08-05 08:00:00 20.5 0 Calma 6 Noroeste 0 -- -- 76
2019-08-05 07:00:00 19.5 0 Calma 9 Noroeste 0 -- -- 78
2019-08-05 06:00:00 20 0 Calma 9 Nordeste 0 -- -- 80
2019-08-05 05:00:00 20.4 5 Nordeste 9 Nordeste 0 -- -- 80
2019-08-05 04:00:00 20.4 0 Calma 5 Noroeste 0 -- -- 80
2019-08-05 03:00:00 20 0 Calma 4 Noroeste 0 -- -- 83
2019-08-05 02:00:00 21.5 0 Calma 5 Sudoeste 0 -- -- 83
2019-08-05 01:00:00 22.1 3 Sudoeste 15 Sudoeste 0 -- -- 81
2019-08-05 00:00:00 21.9 0 Calma 5 Este 0 -- -- 76
2019-08-04 23:00:00 22 0 Calma 5 Oeste 0 -- -- 75
2019-08-04 22:00:00 22.6 4 Oeste 8 Sudoeste 0 -- -- 75
2019-08-04 21:00:00 23.3 5 Oeste 18 Oeste 0 -- -- 72
2019-08-04 20:00:00 24.4 10 Oeste 18 Oeste 0 -- -- 69
2019-08-04 19:00:00 24.1 9 Sudoeste 23 Sur 0 -- -- 67
2019-08-04 18:00:00 24.3 18 Sudoeste 22 Sudoeste 0 -- -- 70
2019-08-04 17:00:00 24.9 15 Sudoeste 23 Sudoeste 0 -- -- 69
2019-08-04 16:00:00 24.6 18 Sudoeste 23 Oeste 0 -- -- 66
2019-08-04 15:00:00 25.2 15 Sudoeste 21 Sudoeste 0 -- -- 65
2019-08-04 14:00:00 24.4 14 Sudoeste 18 Sudoeste 0 -- -- 69
2019-08-04 13:00:00 23.8 14 Sudoeste 20 Oeste 0 -- -- 68
2019-08-04 12:00:00 24.4 10 Oeste 21 Oeste 0 -- -- 66
2019-08-04 11:00:00 24.1 8 Oeste 16 Oeste 0 -- -- 67
2019-08-04 10:00:00 23.4 4 Sudeste 12 Este 0 -- -- 72
2019-08-04 09:00:00 22.1 7 Nordeste 10 Nordeste 0 -- -- 78
2019-08-04 08:00:00 20 4 Nordeste 6 Nordeste 0 -- -- 85
2019-08-04 07:00:00 19.4 3 Nordeste 5 Nordeste 0 -- -- 85
2019-08-04 06:00:00 19.6 2 Noroeste 6 Noroeste 0 -- -- 84
2019-08-04 05:00:00 19.9 0 Calma 8 Nordeste 0 -- -- 81
2019-08-04 04:00:00 20.4 6 Nordeste 10 Este 0 -- -- 84
2019-08-04 03:00:00 20.6 0 Calma 8 Oeste 0 -- -- 83
2019-08-04 02:00:00 21.3 3 Oeste 11 Sudoeste 0 -- -- 81
2019-08-04 01:00:00 21.8 10 Sudoeste 16 Sudoeste 0 -- -- 81
2019-08-04 00:00:00 21.7 13 Sudoeste 16 Sur 0 -- -- 82
2019-08-03 23:00:00 22.1 5 Sudoeste 15 Sudoeste 0 -- -- 80
2019-08-03 22:00:00 22.7 6 Oeste 12 Oeste 0 -- -- 75
2019-08-03 21:00:00 22.5 4 Oeste 15 Sudoeste 0 -- -- 75
2019-08-03 20:00:00 22.8 14 Sur 21 Sur 0 -- -- 76
2019-08-03 19:00:00 23.3 14 Sur 19 Sudoeste 0 -- -- 74
2019-08-03 18:00:00 24.2 14 Oeste 33 Oeste 0 -- -- 68
2019-08-03 17:00:00 25.9 11 Oeste 23 Oeste 0 -- -- 65
2019-08-03 16:00:00 25.2 9 Este 23 Sur 0 -- -- 67
2019-08-03 15:00:00 23.5 19 Sur 27 Sur 0 -- -- 71
2019-08-03 14:00:00 24.5 13 Sur 29 Oeste 0 -- -- 67
2019-08-03 13:00:00 24.4 15 Oeste 62 Sudoeste 0 -- -- 66
2019-08-03 12:00:00 24.9 12 Oeste 20 Sudoeste 0 -- -- 67
2019-08-03 11:00:00 25.5 0 Calma 11 Noroeste 0 -- -- 67
2019-08-03 10:00:00 23.4 4 Sudeste 8 Sur 0 -- -- 72
2019-08-03 09:00:00 22.8 3 Oeste 9 Este 0 -- -- 74
2019-08-03 08:00:00 20.1 2 Este 4 Este 0 -- -- 80
2019-08-03 07:00:00 19.3 0 Calma 2 Noroeste 0 -- -- 79
2019-08-03 06:00:00 19.8 0 Calma 5 Nordeste 0 -- -- 76
2019-08-03 05:00:00 21.2 3 Este 11 Nordeste 0 -- -- 74
2019-08-03 04:00:00 20.7 3 Nordeste 9 Nordeste 0 -- -- 74
2019-08-03 03:00:00 21.1 5 Nordeste 10 Este 0 -- -- 74
2019-08-03 02:00:00 21.3 3 Nordeste 13 Nordeste 0 -- -- 74
2019-08-03 01:00:00 21.8 0 Calma 10 Este 0 -- -- 74
2019-08-03 00:00:00 21.5 5 Este 8 Sudeste 0 -- -- 78
2019-08-02 23:00:00 22 0 Calma 11 Sudoeste 0 -- -- 77
2019-08-02 22:00:00 22.5 11 Sudoeste 16 Sudoeste 0 -- -- 79
2019-08-02 21:00:00 22.6 12 Sudoeste 21 Oeste 0 -- -- 76
2019-08-02 20:00:00 24 13 Oeste 24 Oeste 0 -- -- 72
2019-08-02 19:00:00 24.6 10 Oeste 18 Oeste 0 -- -- 69
2019-08-02 18:00:00 24.4 10 Sudoeste 23 Sur 0 -- -- 69
2019-08-02 17:00:00 23.7 19 Sur 24 Sur 0 -- -- 72
2019-08-02 16:00:00 23.8 15 Sudoeste 30 Oeste 0 -- -- 70
2019-08-02 15:00:00 24.3 19 Oeste 32 Oeste 0 -- -- 67
2019-08-02 14:00:00 24.9 14 Sudoeste 21 Sudoeste 0 -- -- 67
2019-08-02 13:00:00 24.8 10 Oeste 18 Oeste 0 -- -- 64
2019-08-02 12:00:00 23.7 13 Sudoeste 17 Sudoeste 0 -- -- 67
2019-08-02 11:00:00 24.6 9 Sudoeste 19 Sur 0 -- -- 65
2019-08-02 10:00:00 23.2 10 Sudeste 15 Sudeste 0 -- -- 70
2019-08-02 09:00:00 23 5 Nordeste 7 Nordeste 0 -- -- 70
2019-08-02 08:00:00 20.8 0 Calma 12 Sudeste 0 -- -- 74
2019-08-02 07:00:00 21.2 10 Este 14 Este 0 -- -- 75
2019-08-02 06:00:00 20.8 3 Nordeste 12 Este 0 -- -- 76
2019-08-02 05:00:00 20.2 3 Nordeste 9 Este 0 -- -- 80
2019-08-02 04:00:00 20.1 3 Nordeste 6 Nordeste 0 -- -- 81
2019-08-02 03:00:00 20.9 0 Calma 5 Nordeste 0 -- -- 76
2019-08-02 02:00:00 21.5 3 Este 9 Sudeste 0 -- -- 72
2019-08-02 01:00:00 21.4 0 Calma 5 Este 0 -- -- 76
2019-08-02 00:00:00 21.9 0 Calma 16 Sudoeste 0 -- -- 75
2019-08-01 23:00:00 22.4 15 Sudoeste 18 Sudoeste 0 -- -- 76
2019-08-01 22:00:00 22.6 8 Sur 10 Sur 0 -- -- 74
2019-08-01 21:00:00 23.1 9 Sudoeste 21 Oeste 0 -- -- 70
2019-08-01 20:00:00 24 13 Oeste 23 Oeste 0 -- -- 66
2019-08-01 19:00:00 25 9 Oeste 17 Oeste 0 -- -- 64
2019-08-01 18:00:00 25.4 6 Sudoeste 18 Sur 0 -- -- 61
2019-08-01 17:00:00 24.2 17 Sur 27 Sudeste 0 -- -- 69
2019-08-01 16:00:00 25 13 Sur 22 Sudoeste 0 -- -- 65
2019-08-01 15:00:00 23.9 15 Sudoeste 31 Oeste 0 -- -- 65
2019-08-01 14:00:00 24 17 Oeste 29 Oeste 0 -- -- 64
2019-08-01 13:00:00 24.5 11 Sudoeste 18 Sudoeste 0 -- -- 62
2019-08-01 12:00:00 23.3 13 Sudoeste 16 Sudoeste 0 -- -- 66
2019-08-01 11:00:00 24.2 8 Sur 12 Sudoeste 0 -- -- 65
2019-08-01 10:00:00 22.9 6 Sudoeste 11 Oeste 0 -- -- 66
2019-08-01 09:00:00 22.7 5 Nordeste 8 Este 0 -- -- 70
2019-08-01 08:00:00 20.5 0 Calma 5 Noroeste 0 -- -- 76
2019-08-01 07:00:00 20.4 2 Noroeste 7 Noroeste 0 -- -- 75
2019-08-01 06:00:00 19.8 0 Calma 4 Noroeste 0 -- -- 74
2019-08-01 05:00:00 19.6 0 Calma 6 Nordeste 0 -- -- 73
2019-08-01 04:00:00 20 2 Norte 12 Sudoeste 0 -- -- 74
2019-08-01 03:00:00 21.1 3 Sudoeste 10 Sudoeste 0 -- -- 74
2019-08-01 02:00:00 20.9 0 Calma 6 Sudoeste 0 -- -- 72
2019-08-01 01:00:00 22.1 3 Sudoeste 8 Sudoeste 0 -- -- 71
2019-08-01 00:00:00 22.5 6 Sudoeste 12 Sudoeste 0 -- -- 70
2019-07-31 23:00:00 22.5 5 Oeste 16 Noroeste 0 -- -- 70
2019-07-31 22:00:00 22.7 7 Oeste 17 Oeste 0 -- -- 68
2019-07-31 21:00:00 22.9 5 Oeste 19 Sur 0 -- -- 69
2019-07-31 20:00:00 23.5 9 Sur 16 Sudoeste 0 -- -- 65
2019-07-31 19:00:00 23.7 16 Sudoeste 26 Sudoeste 0 -- -- 67
2019-07-31 18:00:00 24.1 17 Oeste 27 Sudoeste 0 -- -- 64
2019-07-31 17:00:00 25 14 Oeste 22 Sudoeste 0 -- -- 62
2019-07-31 16:00:00 24.3 18 Sudoeste 23 Sudoeste 0 -- -- 64
2019-07-31 15:00:00 24.8 16 Sur 21 Sur 0 -- -- 62
2019-07-31 14:00:00 25.3 13 Sudoeste 23 Sudoeste 0 -- -- 60
2019-07-31 13:00:00 23.6 19 Sudoeste 25 Sudoeste 0 -- -- 64
2019-07-31 12:00:00 23.8 15 Sudoeste 19 Oeste 0 -- -- 64
2019-07-31 11:00:00 23.8 9 Sudoeste 14 Sudoeste 0 -- -- 65
2019-07-31 10:00:00 23.7 6 Oeste 12 Sudoeste 0 -- -- 62
2019-07-31 09:00:00 22.5 5 Nordeste 12 Este 0 -- -- 69
2019-07-31 08:00:00 20.5 3 Nordeste 8 Nordeste 0 -- -- 78
2019-07-31 07:00:00 19.9 0 Calma 5 Noroeste 0 -- -- 79
2019-07-31 06:00:00 20 2 Noroeste 5 Noroeste 0 -- -- 78
2019-07-31 05:00:00 20.7 0 Calma 6 Noroeste 0 -- -- 76
2019-07-31 04:00:00 21.1 0 Calma 3 Sur 0 -- -- 74
2019-07-31 03:00:00 21.6 0 Calma 9 Oeste 0 -- -- 72
2019-07-31 02:00:00 22.1 3 Oeste 9 Sur 0 -- -- 71
2019-07-31 01:00:00 22.5 6 Sur 14 Sur 0 -- -- 71
2019-07-31 00:00:00 22.7 3 Sur 13 Sudoeste 0 -- -- 71
2019-07-30 23:00:00 23 5 Oeste 17 Oeste 0 -- -- 72
2019-07-30 22:00:00 23.3 6 Oeste 14 Sudoeste 0 -- -- 72
2019-07-30 21:00:00 23.5 10 Sudoeste 17 Sudoeste 0 -- -- 71
2019-07-30 20:00:00 24.6 6 Oeste 22 Oeste 0 -- -- 69
2019-07-30 19:00:00 24.9 12 Sudoeste 26 Sudoeste 0 -- -- 67
2019-07-30 18:00:00 24.4 22 Sur 29 Sur 0 -- -- 71
2019-07-30 17:00:00 24.9 17 Sur 25 Sudoeste 0 -- -- 69
2019-07-30 16:00:00 25.9 18 Sudoeste 25 Sudoeste 0 -- -- 65
2019-07-30 15:00:00 25.9 14 Sudoeste 36 Sudoeste 0 -- -- 61
2019-07-30 14:00:00 27.1 10 Oeste 15 Oeste 0 -- -- 60
2019-07-30 13:00:00 25.2 12 Sudoeste 18 Oeste 0 -- -- 64
2019-07-30 12:00:00 25.5 11 Sur 15 Sur 0 -- -- 64
2019-07-30 11:00:00 25.2 7 Sudoeste 11 Sudoeste 0 -- -- 60
2019-07-30 10:00:00 25.7 5 Oeste 9 Sudoeste 0 -- -- 60
2019-07-30 09:00:00 24.6 0 Calma 7 Norte 0 -- -- 67
2019-07-30 08:00:00 21 2 Norte 6 Norte 0 -- -- 75
2019-07-30 07:00:00 20.2 0 Calma 9 Nordeste 0 -- -- 75
2019-07-30 06:00:00 21.4 6 Noroeste 8 Noroeste 0 -- -- 74
2019-07-30 05:00:00 20.7 3 Noroeste 8 Noroeste 0 -- -- 76
2019-07-30 04:00:00 21 5 Noroeste 8 Noroeste 0 -- -- 76
2019-07-30 03:00:00 21.6 0 Calma 9 Noroeste 0 -- -- 75
2019-07-30 02:00:00 21.7 0 Calma 13 Oeste 0 -- -- 75
2019-07-30 01:00:00 22.5 5 Oeste 12 Oeste 0 -- -- 75
2019-07-30 00:00:00 22.4 3 Oeste 10 Oeste 0 -- -- 75
2019-07-29 23:00:00 22.5 0 Calma 9 Sudoeste 0 -- -- 75
2019-07-29 22:00:00 22.7 10 Sur 21 Sur 0 -- -- 76
2019-07-29 21:00:00 23 10 Sudoeste 27 Oeste 0 -- -- 72
2019-07-29 20:00:00 24.1 13 Oeste 24 Oeste 0 -- -- 70
2019-07-29 19:00:00 25.5 7 Sudoeste 28 Sudoeste 0 -- -- 67
2019-07-29 18:00:00 24.8 20 Sudoeste 26 Sudoeste 0 -- -- 69
2019-07-29 17:00:00 26 13 Sudoeste 34 Oeste 0 -- -- 62
2019-07-29 16:00:00 24.7 19 Oeste 35 Oeste 0 -- -- 64
2019-07-29 15:00:00 26.4 13 Oeste 22 Oeste 0 -- -- 61
2019-07-29 14:00:00 24.9 18 Sur 28 Sur 0 -- -- 67
2019-07-29 13:00:00 25.5 15 Sudoeste 31 Oeste 0 -- -- 64
2019-07-29 12:00:00 24.8 12 Oeste 22 Oeste 0 -- -- 64
2019-07-29 11:00:00 24.5 8 Oeste 18 Oeste 0 -- -- 64
2019-07-29 10:00:00 23.7 12 Sudeste 15 Sudeste 0 -- -- 70
2019-07-29 09:00:00 22.7 6 Oeste 14 Oeste 0 -- -- 71
2019-07-29 08:00:00 21.7 2 Noroeste 11 Norte 0 -- -- 78
2019-07-29 07:00:00 20.9 0 Calma 8 Noroeste 0 -- -- 79
2019-07-29 06:00:00 21.3 0 Calma 15 Este 0 -- -- 75
2019-07-29 05:00:00 22.2 9 Sudeste 14 Sudeste 0 -- -- 75
2019-07-29 04:00:00 21.6 0 Calma 8 Oeste 0 -- -- 80
2019-07-29 03:00:00 21.7 0 Calma 8 Oeste 0 -- -- 81
2019-07-29 02:00:00 22 0 Calma 6 Sudeste 0 -- -- 80
2019-07-29 01:00:00 22.6 3 Sudeste 12 Oeste 0 -- -- 79
2019-07-29 00:00:00 23.1 6 Oeste 17 Noroeste 0 -- -- 77
2019-07-28 23:00:00 23.1 5 Oeste 13 Oeste 0 -- -- 79
2019-07-28 22:00:00 23.2 11 Sudoeste 15 Sudoeste 0 -- -- 81
2019-07-28 21:00:00 23.5 9 Sudoeste 17 Sudoeste 0 -- -- 79
2019-07-28 20:00:00 24.7 9 Oeste 23 Oeste 0 -- -- 74
2019-07-28 19:00:00 24.8 14 Oeste 24 Oeste 0 -- -- 72
2019-07-28 18:00:00 25.3 9 Sudoeste 14 Sudoeste 0 -- -- 71
2019-07-28 17:00:00 25.2 10 Sur 21 Sudoeste 0 -- -- 75
2019-07-28 16:00:00 24.9 17 Sudoeste 24 Oeste 0 -- -- 74
2019-07-28 15:00:00 25.6 13 Oeste 27 Oeste 0 -- -- 71
2019-07-28 14:00:00 25 14 Oeste 23 Oeste 0 -- -- 70
2019-07-28 13:00:00 24.5 13 Sudoeste 15 Sudoeste 0 -- -- 71
2019-07-28 12:00:00 24.8 12 Sudoeste 15 Sudoeste 0 -- -- 71
2019-07-28 11:00:00 24.8 10 Sudoeste 18 Oeste 0 -- -- 70
2019-07-28 10:00:00 24 10 Oeste 14 Oeste 0 -- -- 72
2019-07-28 09:00:00 23.5 4 Oeste 7 Oeste 0 -- -- 74
2019-07-28 08:00:00 20.7 0 Calma 6 Noroeste 0 -- -- 84
2019-07-28 07:00:00 20.6 2 Noroeste 6 Noroeste 0 -- -- 84
2019-07-28 06:00:00 20.3 0 Calma 6 Oeste 0 -- -- 84
2019-07-28 05:00:00 20.9 0 Calma 8 Noroeste 0 -- -- 83
2019-07-28 04:00:00 21.4 3 Noroeste 10 Oeste 0 -- -- 83
2019-07-28 03:00:00 21.6 4 Noroeste 11 Noroeste 0 -- -- 84
2019-07-28 02:00:00 22 4 Oeste 7 Sudoeste 0 -- -- 83
2019-07-28 01:00:00 22.3 0 Calma 10 Oeste 0 -- -- 78
2019-07-28 00:00:00 22.3 4 Oeste 10 Oeste 0 -- -- 79
2019-07-27 23:00:00 22.3 0 Calma 14 Sur 0 -- -- 79
2019-07-27 22:00:00 22.5 12 Sur 18 Sudoeste 0 -- -- 79
2019-07-26 11:00:00 25.5 6 Oeste 10 Sudoeste 0 -- -- 60
2019-07-26 10:00:00 25.1 5 Oeste 9 Oeste 0 -- -- 69
2019-07-26 09:00:00 23.8 5 Sur 13 Sur 0 -- -- 81
2019-07-26 08:00:00 21.6 0 Calma 6 Sudeste 0 -- -- 74
2019-07-26 07:00:00 20.7 0 Calma 9 Noroeste 0 -- -- 87
2019-07-26 06:00:00 22.2 3 Noroeste 9 Noroeste 0 -- -- 87
2019-07-26 05:00:00 22.8 3 Oeste 7 Oeste 0 -- -- 86
2019-07-26 04:00:00 22.7 4 Oeste 9 Oeste 0 -- -- 85
2019-07-26 03:00:00 23 4 Noroeste 11 Sudoeste 0 -- -- 85
2019-07-26 02:00:00 23 6 Oeste 12 Sudoeste 0 -- -- 85
2019-07-26 01:00:00 23 0 Calma 10 Sur 0 -- -- 87
2019-07-26 00:00:00 23.3 0 Calma 5 Sudeste 0 -- -- 80